Time;durP1;ratioP1;P1;durP2;ratioP2;P2;SDS_P1;SDS_P2;PMS_P1;PMS_P2;Temp;Humidity;BMP_temperature;BMP_pressure;BME280_temperature;BME280_humidity;BME280_pressure;Samples;Min_cycle;Max_cycle;Signal;HPM_P1;HPM_P2
2021/06/16 00:02:21;;;;;;;10.68;2.85;;;;;;;19.56;49.12;101452.47;5069121;28;20044;-63
2021/06/16 00:04:48;;;;;;;10.35;2.70;;;;;;;19.53;49.52;101445.59;5072292;28;20127;-63
2021/06/16 00:07:15;;;;;;;13.02;3.05;;;;;;;19.46;49.82;101430.44;5054331;28;20455;-63
2021/06/16 00:09:42;;;;;;;10.65;2.75;;;;;;;19.51;50.59;101442.28;5054626;28;20044;-63
2021/06/16 00:12:10;;;;;;;8.18;2.60;;;;;;;19.46;49.92;101435.81;5072501;28;20047;-63
2021/06/16 00:14:38;;;;;;;10.88;2.65;;;;;;;19.44;49.99;101435.19;5054827;28;20044;-63
2021/06/16 00:17:06;;;;;;;12.23;2.85;;;;;;;19.40;50.12;101432.06;5072009;28;20041;-63
2021/06/16 00:19:33;;;;;;;11.05;2.83;;;;;;;19.39;50.33;101435.75;5072454;28;20128;-63
2021/06/16 00:22:00;;;;;;;8.63;2.60;;;;;;;19.36;50.25;101430.78;5070851;28;20493;-63
2021/06/16 00:24:27;;;;;;;13.60;3.30;;;;;;;19.32;50.85;101429.53;5072330;28;20101;-63
2021/06/16 00:26:58;;;;;;;;;;;;;;;19.31;49.92;101428.66;5072315;28;20094;-63
2021/06/16 00:29:25;;;;;;;13.75;3.20;;;;;;;19.25;50.46;101421.41;5071956;28;20324;-63
2021/06/16 00:31:52;;;;;;;18.63;3.50;;;;;;;19.22;51.01;101420.94;5070357;28;20489;-63
2021/06/16 00:34:19;;;;;;;15.82;4.13;;;;;;;19.23;50.63;101420.75;5072281;28;20072;-63
2021/06/16 00:36:46;;;;;;;17.33;4.00;;;;;;;19.22;52.00;101420.94;5070857;28;20127;-63
2021/06/16 00:39:12;;;;;;;14.75;3.58;;;;;;;19.21;51.25;101420.13;5072259;28;20401;-63
2021/06/16 00:41:39;;;;;;;12.27;3.35;;;;;;;19.18;51.89;101413.25;5071925;28;20040;-63
2021/06/16 00:44:07;;;;;;;10.27;3.30;;;;;;;19.17;51.75;101408.06;5071740;28;20088;-63
2021/06/16 00:46:35;;;;;;;14.15;3.50;;;;;;;19.13;51.63;101413.00;5054199;28;20041;-63
2021/06/16 00:49:03;;;;;;;13.85;3.70;;;;;;;19.09;52.23;101410.91;5070863;28;20041;-63
2021/06/16 00:51:31;;;;;;;12.90;3.30;;;;;;;19.13;51.80;101409.50;5071058;28;20115;-63
2021/06/16 00:53:57;;;;;;;14.68;3.40;;;;;;;19.10;51.84;101408.03;5075523;28;20049;-63
2021/06/16 00:56:24;;;;;;;9.68;3.22;;;;;;;19.06;52.20;101413.97;5057666;28;20505;-63
2021/06/16 00:58:51;;;;;;;11.20;3.22;;;;;;;18.98;51.95;101401.53;5071013;28;20036;-63
2021/06/16 01:01:21;;;;;;;13.07;3.85;;;;;;;18.98;52.28;101406.91;5052046;28;20041;-63
2021/06/16 01:04:13;;;;;;;12.82;2.97;;;;;;;18.93;52.54;101407.47;5054557;28;20045;-63
2021/06/16 01:06:47;;;;;;;10.30;2.90;;;;;;;18.91;52.44;101412.19;5060485;28;20048;-63
2021/06/16 01:11:59;;;;;;;10.82;3.03;;;;;;;19.04;51.80;101399.91;5085785;28;20361;-61
2021/06/16 01:14:33;;;;;;;11.30;3.08;;;;;;;18.85;52.57;101399.53;5070356;28;20057;-62
2021/06/16 01:17:03;;;;;;;14.30;3.10;;;;;;;18.82;52.22;101397.22;5069826;28;20132;-63
2021/06/16 01:25:21;;;;;;;15.90;3.38;;;;;;;18.72;53.48;101391.31;5110802;27;20121;-62
2021/06/16 01:27:49;;;;;;;11.88;2.97;;;;;;;18.67;53.18;101397.28;5088581;28;20075;-62
2021/06/16 01:30:16;;;;;;;11.65;3.20;;;;;;;18.68;53.01;101382.81;5090317;28;20045;-62
2021/06/16 01:32:45;;;;;;;12.18;2.90;;;;;;;18.66;53.19;101384.03;5090015;28;20048;-62
2021/06/16 01:35:12;;;;;;;12.52;3.20;;;;;;;18.61;53.28;101385.44;5087214;28;20041;-62
2021/06/16 01:37:40;;;;;;;12.43;3.30;;;;;;;18.61;53.03;101381.94;5089984;28;20040;-62
2021/06/16 01:40:09;;;;;;;12.98;2.83;;;;;;;18.63;53.08;101377.19;5089029;28;20071;-62
2021/06/16 01:42:39;;;;;;;11.05;3.10;;;;;;;18.63;52.54;101382.56;5089835;28;20052;-62
2021/06/16 01:45:07;;;;;;;11.95;3.20;;;;;;;18.65;52.81;101377.00;5090173;28;20069;-62
2021/06/16 01:47:35;;;;;;;10.73;2.90;;;;;;;18.61;52.03;101380.06;5088555;28;20055;-62
2021/06/16 01:50:04;;;;;;;13.85;3.40;;;;;;;18.66;52.43;101375.97;5089796;28;20504;-62
2021/06/16 01:52:33;;;;;;;13.80;3.35;;;;;;;18.61;52.78;101380.06;5088675;28;20044;-62
2021/06/16 01:55:00;;;;;;;11.60;3.45;;;;;;;18.65;52.91;101377.81;5089334;28;20040;-62
2021/06/16 01:57:28;;;;;;;17.02;3.30;;;;;;;18.63;53.13;101376.34;5089563;28;20055;-62
2021/06/16 01:59:59;;;;;;;12.85;3.30;;;;;;;18.58;53.40;101375.06;5089451;28;20098;-62
2021/06/16 02:02:26;;;;;;;10.00;3.33;;;;;;;18.55;53.09;101385.38;5049881;28;20067;-62
2021/06/16 02:04:53;;;;;;;9.63;3.35;;;;;;;18.58;53.21;101385.81;5071524;28;20039;-62
2021/06/16 02:07:27;;;;;;;12.43;3.60;;;;;;;18.62;53.23;101386.25;5087776;28;20400;-62
2021/06/16 02:09:55;;;;;;;14.48;4.07;;;;;;;18.54;52.51;101384.53;5089471;28;20072;-62
2021/06/16 02:12:22;;;;;;;16.15;4.63;;;;;;;18.63;52.39;101387.09;5088628;28;20044;-62
2021/06/16 02:15:02;;;;;;;12.98;4.25;;;;;;;18.69;51.93;101386.34;5089260;28;20044;-62
2021/06/16 02:17:30;;;;;;;14.82;4.88;;;;;;;18.69;51.91;101380.97;5089064;28;20068;-62
2021/06/16 02:19:57;;;;;;;19.27;5.30;;;;;;;18.79;51.59;101376.94;5089003;28;20045;-62
2021/06/16 02:22:26;;;;;;;14.68;4.72;;;;;;;18.70;52.27;101377.22;5089211;28;20072;-62
2021/06/16 02:24:54;;;;;;;15.20;5.15;;;;;;;18.66;52.51;101375.97;5087738;28;20043;-62
2021/06/16 02:27:22;;;;;;;12.43;4.03;;;;;;;18.63;52.30;101369.13;5089146;28;20040;-62
2021/06/16 02:29:48;;;;;;;14.52;4.90;;;;;;;18.60;53.09;101367.63;5088824;28;20432;-62
2021/06/16 02:32:15;;;;;;;15.15;4.22;;;;;;;18.58;52.84;101361.63;5086937;28;20064;-62
2021/06/16 02:34:42;;;;;;;17.25;4.70;;;;;;;18.53;52.79;101360.53;5085843;28;20105;-62
2021/06/16 02:37:12;;;;;;;15.50;4.47;;;;;;;18.52;53.46;101357.03;5075330;28;20393;-62
2021/06/16 02:39:44;;;;;;;14.50;4.43;;;;;;;18.44;53.12;101348.25;5075455;28;20044;-62
2021/06/16 02:42:12;;;;;;;18.27;4.50;;;;;;;18.50;53.57;101352.84;5041557;28;20431;-62
2021/06/16 02:44:43;;;;;;;14.43;4.50;;;;;;;18.42;54.07;101345.75;5073931;28;20047;-62
2021/06/16 02:47:11;;;;;;;13.77;4.07;;;;;;;18.44;54.36;101345.56;5075094;28;20154;-62
2021/06/16 02:49:43;;;;;;;14.27;4.18;;;;;;;18.40;53.93;101347.81;5073988;28;20489;-62
2021/06/16 02:52:14;;;;;;;12.88;4.10;;;;;;;18.33;54.10;101342.38;5074092;28;20393;-62
2021/06/16 02:54:44;;;;;;;15.83;4.20;;;;;;;18.33;53.71;101338.84;5074214;28;20551;-62
2021/06/16 02:57:17;;;;;;;16.55;4.70;;;;;;;18.38;53.89;101342.63;5073716;28;20047;-62
2021/06/16 02:59:46;;;;;;;11.75;3.85;;;;;;;18.32;54.81;101343.41;5071255;28;20041;-62
2021/06/16 03:02:16;;;;;;;13.10;4.20;;;;;;;18.27;54.15;101334.25;5055613;28;20041;-62
2021/06/16 03:04:45;;;;;;;14.68;3.90;;;;;;;18.28;54.29;101344.81;5065452;28;20124;-62
2021/06/16 03:07:14;;;;;;;13.05;4.10;;;;;;;18.24;54.42;101335.44;5074627;28;20493;-62
2021/06/16 03:09:41;;;;;;;16.05;4.25;;;;;;;18.21;54.79;101335.84;5056946;28;20115;-62
2021/06/16 03:12:08;;;;;;;13.40;3.80;;;;;;;18.30;54.35;101332.03;5074740;28;20058;-62
2021/06/16 03:14:36;;;;;;;15.35;3.88;;;;;;;18.25;54.77;101330.94;5075042;28;20450;-62
2021/06/16 03:17:05;;;;;;;12.27;3.90;;;;;;;18.18;54.99;101336.22;5074400;28;20456;-62
2021/06/16 03:19:33;;;;;;;11.57;4.32;;;;;;;18.18;55.01;101334.38;5074735;28;20051;-62
2021/06/16 03:22:03;;;;;;;10.82;4.10;;;;;;;18.12;55.45;101331.59;5073386;28;20447;-62
2021/06/16 03:24:32;;;;;;;15.00;4.22;;;;;;;18.14;55.87;101335.78;5074005;28;20114;-62
2021/06/16 03:26:59;;;;;;;14.70;4.00;;;;;;;18.21;54.90;101338.53;5074234;28;20049;-63
2021/06/16 03:29:27;;;;;;;14.18;3.85;;;;;;;18.18;55.26;101336.22;5074572;28;20041;-62
2021/06/16 03:31:56;;;;;;;11.10;4.22;;;;;;;18.13;54.96;101335.97;5071568;28;20051;-62
2021/06/16 03:34:23;;;;;;;11.80;4.10;;;;;;;18.14;55.49;101332.25;5074504;28;20040;-62
2021/06/16 03:36:51;;;;;;;11.48;4.50;;;;;;;18.15;55.61;101337.41;5073989;28;20052;-62
2021/06/16 03:39:19;;;;;;;13.50;3.97;;;;;;;18.13;56.15;101326.03;5074548;28;20102;-62
2021/06/16 03:41:47;;;;;;;11.32;4.25;;;;;;;18.18;55.58;101329.00;5074234;28;20409;-62
2021/06/16 03:44:15;;;;;;;17.27;4.45;;;;;;;18.21;55.52;101322.44;5074121;28;20467;-62
2021/06/16 03:46:42;;;;;;;13.63;4.05;;;;;;;18.19;55.08;101319.06;5072790;28;20543;-62
2021/06/16 03:49:12;;;;;;;15.77;4.47;;;;;;;18.17;54.87;101316.59;5072958;28;20562;-62
2021/06/16 03:51:42;;;;;;;9.98;4.10;;;;;;;18.22;55.49;101322.22;5073771;28;20127;-62
2021/06/16 03:54:11;;;;;;;15.30;4.50;;;;;;;18.19;55.89;101317.25;5073972;28;20036;-62
2021/06/16 03:56:41;;;;;;;10.32;4.50;;;;;;;18.23;55.74;101315.84;5073575;28;20417;-62
2021/06/16 03:59:09;;;;;;;17.05;4.53;;;;;;;18.26;56.40;101316.47;5073736;28;20055;-62
2021/06/16 04:01:38;;;;;;;13.82;4.28;;;;;;;18.27;56.60;101316.28;5071657;28;20422;-63
2021/06/16 04:04:09;;;;;;;10.15;4.22;;;;;;;18.27;56.69;101310.91;5072613;28;20083;-63
2021/06/16 04:06:40;;;;;;;13.43;4.55;;;;;;;18.33;56.25;101312.00;5073322;28;20048;-63
2021/06/16 04:09:09;;;;;;;13.80;4.85;;;;;;;18.32;56.69;101308.50;5072545;28;20382;-63
2021/06/16 04:11:37;;;;;;;13.18;4.57;;;;;;;18.34;55.62;101317.19;5072447;28;20520;-63
2021/06/16 04:14:03;;;;;;;12.00;4.50;;;;;;;18.39;55.51;101306.69;5056131;28;20067;-63
2021/06/16 04:16:31;;;;;;;11.20;4.43;;;;;;;18.41;56.09;101306.53;5072970;28;20044;-62
2021/06/16 04:18:57;;;;;;;24.27;6.10;;;;;;;18.42;56.28;101308.16;5072336;28;20123;-63
2021/06/16 04:21:25;;;;;;;14.88;4.80;;;;;;;18.40;56.34;101302.16;5039571;28;20093;-62
2021/06/16 04:23:52;;;;;;;16.10;4.90;;;;;;;18.43;56.50;101299.09;5071855;28;20040;-62
2021/06/16 04:26:23;;;;;;;12.82;4.90;;;;;;;18.48;56.65;101306.56;5072110;28;20044;-63
2021/06/16 04:28:50;;;;;;;11.60;4.40;;;;;;;18.46;56.40;101298.69;5072966;28;20106;-62
2021/06/16 04:31:17;;;;;;;13.55;5.47;;;;;;;18.53;56.71;101298.75;5071118;28;20394;-62
2021/06/16 04:33:45;;;;;;;13.52;5.00;;;;;;;18.66;54.66;101295.34;5072069;28;20102;-62
2021/06/16 04:36:11;;;;;;;16.48;5.00;;;;;;;18.82;54.25;101289.72;5055540;28;20068;-62
2021/06/16 04:38:38;;;;;;;14.55;4.45;;;;;;;18.76;54.35;101287.81;5072973;28;20456;-63
2021/06/16 04:41:05;;;;;;;17.58;5.25;;;;;;;18.77;55.13;101282.22;5073145;28;20531;-63
2021/06/16 04:43:32;;;;;;;11.45;4.50;;;;;;;18.83;55.42;101282.50;5072607;28;20537;-63
2021/06/16 04:45:59;;;;;;;16.00;5.07;;;;;;;18.85;55.95;101283.97;5072983;28;20040;-63
2021/06/16 04:48:26;;;;;;;16.65;5.07;;;;;;;18.90;55.93;101284.22;5071686;28;20050;-63
2021/06/16 04:50:52;;;;;;;13.85;5.50;;;;;;;18.91;56.59;101272.41;5071749;28;20036;-63
2021/06/16 04:53:20;;;;;;;13.48;4.93;;;;;;;18.93;56.47;101272.22;5073026;28;20036;-63
2021/06/16 04:55:46;;;;;;;16.05;5.00;;;;;;;18.93;55.30;101274.91;5071547;28;20037;-63
2021/06/16 04:58:13;;;;;;;15.75;5.38;;;;;;;19.02;54.79;101262.97;5072028;28;20493;-63
2021/06/16 05:00:42;;;;;;;18.77;5.32;;;;;;;19.03;55.59;101266.50;5066694;28;20044;-63
2021/06/16 05:03:09;;;;;;;14.40;4.82;;;;;;;19.07;54.87;101263.22;5069257;28;20048;-63
2021/06/16 05:05:36;;;;;;;20.83;5.15;;;;;;;19.12;55.04;101262.66;5070656;28;20041;-63
2021/06/16 05:08:03;;;;;;;12.00;5.70;;;;;;;19.12;54.68;101263.47;5072551;28;20036;-63
2021/06/16 05:10:29;;;;;;;17.60;7.45;;;;;;;19.25;54.05;101273.47;5071470;28;20202;-63
2021/06/16 05:12:56;;;;;;;14.85;6.00;;;;;;;19.22;54.74;101260.41;5072268;28;20060;-63
2021/06/16 05:15:23;;;;;;;17.33;6.03;;;;;;;19.22;55.88;101260.41;5071509;28;20110;-63
2021/06/16 05:17:50;;;;;;;15.90;5.85;;;;;;;19.24;55.26;101257.53;5072507;28;20051;-63
2021/06/16 05:20:17;;;;;;;19.00;5.80;;;;;;;19.25;55.76;101251.97;5072478;28;20519;-63
2021/06/16 05:22:47;;;;;;;13.80;5.38;;;;;;;19.22;54.95;101257.72;5038486;28;20086;-63
2021/06/16 05:25:15;;;;;;;21.63;6.10;;;;;;;19.20;56.26;101248.22;5072258;28;20044;-63
2021/06/16 05:27:43;;;;;;;16.00;6.00;;;;;;;19.22;56.55;101248.84;5071118;28;20393;-63
2021/06/16 05:30:11;;;;;;;12.13;5.68;;;;;;;19.26;56.38;101256.28;5053104;28;20127;-65
2021/06/16 05:32:38;;;;;;;18.25;5.70;;;;;;;19.30;55.74;101248.66;5072335;28;20151;-63
2021/06/16 05:35:05;;;;;;;18.20;5.95;;;;;;;19.34;56.08;101249.94;5054690;28;20110;-63
2021/06/16 05:37:32;;;;;;;15.07;5.70;;;;;;;19.35;55.83;101247.03;5054601;28;20041;-63
2021/06/16 05:39:59;;;;;;;16.30;6.13;;;;;;;19.44;57.40;101246.88;5054645;28;20131;-63
2021/06/16 05:42:26;;;;;;;21.38;6.10;;;;;;;19.42;56.98;101241.69;5072238;28;20481;-63
2021/06/16 05:44:52;;;;;;;18.08;6.07;;;;;;;19.54;56.05;101237.38;5071051;28;20118;-63
2021/06/16 05:47:19;;;;;;;17.48;6.30;;;;;;;19.56;55.63;101243.41;5072246;28;20079;-63
2021/06/16 05:49:46;;;;;;;13.23;6.22;;;;;;;19.56;56.42;101247.97;5071169;28;20382;-63
2021/06/16 05:52:13;;;;;;;14.27;5.60;;;;;;;19.65;54.63;101244.06;5072037;28;20075;-63
2021/06/16 05:54:39;;;;;;;15.63;6.43;;;;;;;19.72;55.89;101241.41;5070677;28;20102;-63
2021/06/16 05:57:07;;;;;;;17.65;6.50;;;;;;;19.70;54.88;101243.44;5061226;28;20049;-63
2021/06/16 05:59:34;;;;;;;13.88;6.28;;;;;;;19.76;55.15;101245.38;5071123;28;20060;-63
2021/06/16 06:02:01;;;;;;;16.30;6.10;;;;;;;19.80;56.02;101240.41;5054602;28;20100;-63
2021/06/16 06:04:28;;;;;;;17.85;6.07;;;;;;;19.86;56.17;101242.28;5051001;28;20208;-63
2021/06/16 06:06:55;;;;;;;18.48;6.25;;;;;;;19.85;55.82;101238.75;5034092;28;20079;-63
2021/06/16 06:09:22;;;;;;;18.63;6.55;;;;;;;19.87;55.82;101242.06;5052761;28;20128;-64
2021/06/16 06:11:49;;;;;;;21.83;6.88;;;;;;;19.98;55.98;101240.66;5065071;28;20164;-65
2021/06/16 06:14:16;;;;;;;23.02;7.00;;;;;;;20.07;58.03;101242.13;5067706;28;20045;-63
2021/06/16 06:16:43;;;;;;;26.25;7.55;;;;;;;20.11;57.92;101239.84;5073727;28;20128;-64
2021/06/16 06:19:10;;;;;;;21.70;7.00;;;;;;;20.07;57.17;101234.03;5068924;28;20056;-64
2021/06/16 06:21:37;;;;;;;19.40;6.97;;;;;;;20.12;61.21;101238.81;5061935;28;20073;-64
2021/06/16 06:24:05;;;;;;;16.63;6.55;;;;;;;20.04;60.53;101236.31;5053740;28;20644;-64
2021/06/16 06:26:34;;;;;;;16.92;6.70;;;;;;;20.09;59.28;101244.59;5045908;28;20053;-65
2021/06/16 06:29:02;;;;;;;13.73;5.97;;;;;;;19.98;60.08;101237.13;5053813;28;20057;-65
2021/06/16 06:31:29;;;;;;;16.35;6.53;;;;;;;20.04;59.37;101233.63;5043647;28;20132;-65
2021/06/16 06:33:56;;;;;;;23.58;6.47;;;;;;;20.01;60.54;101229.47;5074835;28;20053;-64
2021/06/16 06:36:24;;;;;;;15.20;6.38;;;;;;;20.05;61.59;101235.28;5033413;28;20048;-64
2021/06/16 06:38:52;;;;;;;19.00;6.15;;;;;;;20.08;60.18;101227.63;5064579;28;20045;-64
2021/06/16 06:41:19;;;;;;;13.77;6.22;;;;;;;20.10;61.59;101225.56;5053246;28;20076;-64
2021/06/16 06:43:46;;;;;;;18.40;6.88;;;;;;;20.22;61.73;101231.16;5047445;28;20052;-65
2021/06/16 06:46:13;;;;;;;13.95;6.05;;;;;;;20.29;60.83;101225.78;5056822;28;20036;-64
2021/06/16 06:48:40;;;;;;;13.52;6.18;;;;;;;20.33;59.05;101218.94;5072455;28;20048;-64
2021/06/16 06:51:08;;;;;;;18.00;6.55;;;;;;;20.30;57.36;101216.63;5074819;28;20123;-64
2021/06/16 06:53:35;;;;;;;22.00;6.13;;;;;;;20.51;57.62;101208.34;5071744;28;20053;-64
2021/06/16 06:56:03;;;;;;;13.15;6.25;;;;;;;20.58;56.12;101210.22;5073433;28;20036;-64
2021/06/16 06:58:30;;;;;;;15.82;5.78;;;;;;;20.63;56.98;101208.59;5070466;28;20036;-64
2021/06/16 07:00:57;;;;;;;18.90;5.95;;;;;;;20.63;56.48;101200.50;5033542;28;20056;-64
2021/06/16 07:03:24;;;;;;;15.27;5.55;;;;;;;20.87;55.38;101199.00;5053082;28;20045;-64
2021/06/16 07:05:51;;;;;;;14.23;6.13;;;;;;;20.77;55.91;101195.06;5055036;28;20485;-64
2021/06/16 07:08:18;;;;;;;14.07;5.50;;;;;;;20.87;55.20;101193.59;5050692;28;20085;-63
2021/06/16 07:10:45;;;;;;;13.73;5.93;;;;;;;20.98;54.38;101188.59;5052178;28;20047;-65
2021/06/16 07:13:12;;;;;;;15.93;5.90;;;;;;;21.19;54.29;101191.03;5054038;28;20098;-64
2021/06/16 07:15:39;;;;;;;15.52;5.90;;;;;;;21.19;54.81;101193.72;5052845;28;20041;-64
2021/06/16 07:18:06;;;;;;;16.98;5.90;;;;;;;21.21;55.36;101180.84;5053582;28;20075;-64
2021/06/16 07:20:33;;;;;;;18.05;6.32;;;;;;;21.29;54.07;101183.28;5060038;28;20473;-64
2021/06/16 07:22:59;;;;;;;13.48;5.90;;;;;;;21.38;54.88;101178.47;5060870;28;20044;-65
2021/06/16 07:25:27;;;;;;;15.93;5.82;;;;;;;21.39;56.41;101177.44;5053136;28;20095;-63
2021/06/16 07:27:55;;;;;;;14.93;6.00;;;;;;;21.36;55.75;101177.06;5052874;28;20052;-64
2021/06/16 07:30:22;;;;;;;19.67;6.80;;;;;;;21.47;54.77;101173.69;5056479;28;20124;-63
2021/06/16 07:32:49;;;;;;;15.73;5.88;;;;;;;21.73;53.92;101174.59;5054494;28;20043;-63
2021/06/16 07:35:16;;;;;;;17.92;6.13;;;;;;;21.62;53.85;101170.69;5069252;28;20064;-64
2021/06/16 07:37:43;;;;;;;12.88;5.72;;;;;;;21.74;54.26;101171.66;5060295;28;20040;-65
2021/06/16 07:40:11;;;;;;;17.20;5.80;;;;;;;21.82;53.20;101162.47;5065977;28;20131;-64
2021/06/16 07:42:39;;;;;;;11.30;5.45;;;;;;;21.92;53.83;101159.28;5055761;28;20082;-64
2021/06/16 07:45:08;;;;;;;14.80;5.75;;;;;;;21.99;52.95;101160.06;5056790;28;20128;-64
2021/06/16 07:47:36;;;;;;;14.48;5.80;;;;;;;22.01;52.06;101152.56;5052255;28;20087;-64
2021/06/16 07:50:05;;;;;;;17.08;5.95;;;;;;;22.11;53.13;101152.91;5060478;28;20040;-64
2021/06/16 07:52:33;;;;;;;15.10;5.65;;;;;;;22.23;52.42;101148.44;5062848;28;20075;-64
2021/06/16 07:55:00;;;;;;;12.60;5.95;;;;;;;22.38;51.71;101150.00;5066763;28;20436;-64
2021/06/16 07:57:27;;;;;;;13.63;5.95;;;;;;;22.37;52.30;101148.34;5063602;28;20547;-63
2021/06/16 07:59:54;;;;;;;11.20;5.50;;;;;;;22.69;51.17;101138.22;5064696;28;20497;-63
2021/06/16 08:02:22;;;;;;;14.57;5.90;;;;;;;22.67;51.09;101137.63;5066823;28;20405;-63
2021/06/16 08:04:49;;;;;;;13.13;6.15;;;;;;;22.65;51.55;101137.03;5066173;28;20036;-63
2021/06/16 08:07:16;;;;;;;14.77;6.63;;;;;;;22.68;51.45;101143.88;5052095;28;20043;-63
2021/06/16 08:09:43;;;;;;;12.50;6.43;;;;;;;22.86;51.48;101141.16;5062409;28;20050;-63
2021/06/16 08:12:13;;;;;;;14.63;6.15;;;;;;;22.84;51.81;101127.03;5051018;28;20041;-63
2021/06/16 08:14:41;;;;;;;17.30;6.60;;;;;;;23.05;50.65;101131.19;5052584;28;20405;-63
2021/06/16 08:17:09;;;;;;;12.75;6.38;;;;;;;23.27;50.47;101130.72;5062739;28;20045;-63
2021/06/16 08:19:37;;;;;;;15.63;6.28;;;;;;;23.26;51.21;101129.88;5055847;28;20040;-64
2021/06/16 08:22:09;;;;;;;13.45;6.20;;;;;;;23.34;51.15;101128.75;5052889;28;20128;-63
2021/06/16 08:24:37;;;;;;;13.85;6.47;;;;;;;23.49;50.81;101139.13;5064154;28;20106;-63
2021/06/16 08:27:05;;;;;;;13.38;6.00;;;;;;;23.45;50.42;101129.81;5052676;28;20488;-63
2021/06/16 08:29:33;;;;;;;14.43;6.43;;;;;;;23.48;50.35;101132.88;5051303;28;20505;-63
2021/06/16 08:32:00;;;;;;;12.98;6.20;;;;;;;23.54;50.25;101137.38;5049466;28;20132;-63
2021/06/16 08:34:27;;;;;;;15.55;6.40;;;;;;;23.71;51.03;101131.31;5044673;28;20048;-63
2021/06/16 08:36:54;;;;;;;15.48;6.57;;;;;;;23.79;49.91;101130.16;5052836;28;20116;-63
2021/06/16 08:39:22;;;;;;;15.15;6.22;;;;;;;24.03;50.58;101122.91;5054778;28;20106;-63
2021/06/16 08:41:50;;;;;;;17.60;6.55;;;;;;;24.06;49.96;101125.16;5046017;28;20059;-64
2021/06/16 08:44:18;;;;;;;12.68;6.88;;;;;;;24.11;49.17;101122.56;5052199;28;20068;-64
2021/06/16 08:46:45;;;;;;;17.95;6.90;;;;;;;24.01;50.33;101120.41;5052238;28;20072;-64
2021/06/16 08:49:12;;;;;;;16.10;7.13;;;;;;;24.13;48.74;101123.16;5047095;28;20048;-63
2021/06/16 08:51:39;;;;;;;17.40;6.90;;;;;;;24.32;49.83;101121.13;5065902;28;20056;-63
2021/06/16 08:54:08;;;;;;;15.88;7.57;;;;;;;24.28;49.73;101114.53;5042060;28;20048;-63
2021/06/16 08:56:36;;;;;;;13.57;7.13;;;;;;;24.47;48.93;101110.66;5068935;28;20067;-63
2021/06/16 08:59:04;;;;;;;16.92;6.95;;;;;;;24.57;49.16;101112.78;5068039;28;20044;-63
2021/06/16 09:01:31;;;;;;;13.65;7.00;;;;;;;24.68;48.94;101111.09;5066827;28;20045;-63
2021/06/16 09:03:58;;;;;;;15.13;6.68;;;;;;;24.75;49.51;101108.28;5060083;28;20071;-63
2021/06/16 09:06:30;;;;;;;15.85;7.30;;;;;;;24.94;48.73;101114.34;5042760;28;20033;-63
2021/06/16 09:09:02;;;;;;;16.10;7.22;;;;;;;24.90;48.18;101105.84;5058633;28;20060;-63
2021/06/16 09:14:20;;;;;;;16.30;7.32;;;;;;;24.90;48.48;101098.56;5100331;27;20496;-63
2021/06/16 09:16:48;;;;;;;15.30;7.20;;;;;;;25.10;48.49;101097.28;5088948;28;20044;-63
2021/06/16 09:19:18;;;;;;;16.40;7.55;;;;;;;25.24;48.11;101097.88;5088319;28;20115;-63
2021/06/16 09:21:47;;;;;;;21.37;7.70;;;;;;;25.29;47.88;101093.34;5060722;28;20547;-63
2021/06/16 09:24:14;;;;;;;12.73;6.63;;;;;;;25.31;48.04;101095.00;5080230;28;20037;-63
2021/06/16 09:26:44;;;;;;;17.40;7.43;;;;;;;25.48;47.39;101090.41;5087538;28;20052;-63
2021/06/16 09:29:11;;;;;;;17.52;7.88;;;;;;;25.66;47.35;101097.50;5076547;28;20040;-63
2021/06/16 09:31:42;;;;;;;14.68;7.35;;;;;;;25.77;47.28;101096.59;5077085;28;20575;-63
2021/06/16 09:34:13;;;;;;;17.50;7.65;;;;;;;25.66;47.34;101087.47;5080309;28;20048;-63
2021/06/16 09:36:53;;;;;;;14.85;7.00;;;;;;;25.76;48.49;101091.41;5088472;28;20048;-63
2021/06/16 09:39:25;;;;;;;15.05;6.80;;;;;;;26.13;45.85;101082.78;5079224;28;20129;-63
2021/06/16 09:44:47;;;;;;;16.10;7.40;;;;;;;26.07;45.56;101083.75;5113394;27;20483;-62
2021/06/16 09:47:20;;;;;;;15.60;7.22;;;;;;;26.01;46.10;101085.59;5085329;28;20042;-63
2021/06/16 09:49:54;;;;;;;17.13;7.80;;;;;;;26.10;46.25;101077.84;5082238;28;20036;-62
2021/06/16 09:52:39;;;;;;;17.38;7.18;;;;;;;26.10;46.79;101070.50;5088665;28;20032;-63
2021/06/16 09:55:28;;;;;;;20.67;7.20;;;;;;;26.29;47.04;101070.22;5087556;28;20052;-63
2021/06/16 10:00:43;;;;;;;14.32;7.03;;;;;;;26.64;44.54;101069.06;5104077;27;20221;-63
2021/06/16 10:03:13;;;;;;;13.63;7.40;;;;;;;26.85;43.60;101059.25;5064702;28;20114;-63
2021/06/16 10:06:05;;;;;;;19.60;7.50;;;;;;;26.88;45.34;101066.91;5065226;28;20037;-63
2021/06/16 10:08:34;;;;;;;13.05;7.00;;;;;;;27.04;44.97;101065.16;5066275;28;20122;-63
2021/06/16 10:11:01;;;;;;;17.98;7.15;;;;;;;26.93;43.67;101062.31;5067043;28;20075;-63
2021/06/16 10:13:30;;;;;;;16.15;7.15;;;;;;;26.91;43.30;101061.78;5066066;28;20451;-62
2021/06/16 10:15:59;;;;;;;15.55;8.25;;;;;;;27.19;43.34;101057.97;5066593;28;20394;-62
2021/06/16 10:18:28;;;;;;;15.40;7.72;;;;;;;27.33;43.20;101061.13;5049496;28;20103;-62
2021/06/16 10:20:57;;;;;;;14.43;6.85;;;;;;;27.42;42.19;101056.03;5067469;28;20076;-62
2021/06/16 10:23:26;;;;;;;13.77;6.43;;;;;;;27.60;41.32;101063.00;5068069;28;20505;-62
2021/06/16 10:26:04;;;;;;;15.98;6.80;;;;;;;27.76;41.60;101058.47;5063706;28;20047;-62
2021/06/16 10:28:47;;;;;;;20.40;7.88;;;;;;;27.72;41.10;101058.19;5060539;28;20044;-63
2021/06/16 10:31:17;;;;;;;18.23;8.00;;;;;;;27.85;41.65;101051.47;5061262;28;20374;-62
2021/06/16 10:33:55;;;;;;;13.05;6.80;;;;;;;28.05;43.19;101052.69;5063436;28;20044;-62
2021/06/16 10:36:23;;;;;;;19.15;7.35;;;;;;;28.15;40.95;101048.13;5066645;28;20041;-62
2021/06/16 10:41:54;;;;;;;13.43;6.35;;;;;;;28.37;39.51;101038.13;5128762;27;20139;-62
2021/06/16 10:44:24;;;;;;;13.23;6.88;;;;;;;28.60;39.64;101039.63;5084560;28;20479;-62
2021/06/16 10:49:55;;;;;;;17.52;7.20;;;;;;;28.73;38.94;101039.13;5119179;27;20632;-62
2021/06/16 10:52:24;;;;;;;;;;;;;;;28.85;38.77;101041.59;5104335;28;20035;-62
2021/06/16 10:54:57;;;;;;;13.65;7.47;;;;;;;28.88;39.12;101035.59;5108853;28;20327;-63
2021/06/16 10:57:24;;;;;;;13.82;7.25;;;;;;;28.88;38.37;101038.34;5106957;28;20523;-63
2021/06/16 11:05:30;;;;;;;16.05;7.10;;;;;;;28.69;39.26;101027.09;5119482;27;20499;-63
2021/06/16 11:07:59;;;;;;;16.60;7.05;;;;;;;28.50;39.68;101027.53;5110066;27;20153;-63
2021/06/16 11:10:54;;;;;;;12.73;6.00;;;;;;;28.78;41.01;101022.75;5099376;28;20127;-62
2021/06/16 11:13:42;;;;;;;20.58;7.05;;;;;;;29.17;38.96;101021.47;5103961;28;20039;-63
2021/06/16 11:16:46;;;;;;;18.30;7.20;;;;;;;29.10;38.47;101018.97;5095505;28;20377;-62
2021/06/16 11:19:24;;;;;;;21.83;6.80;;;;;;;29.37;38.25;101017.94;5097260;28;20122;-64
2021/06/16 11:21:53;;;;;;;20.75;7.35;;;;;;;29.37;36.51;101017.94;5108938;28;20100;-64
2021/06/16 11:24:21;;;;;;;17.75;6.72;;;;;;;29.20;38.34;101010.84;5099382;28;20040;-64
2021/06/16 11:26:48;;;;;;;14.25;6.40;;;;;;;29.33;37.75;101005.94;5076939;28;20073;-64
2021/06/16 11:29:55;;;;;;;18.42;6.63;;;;;;;29.50;37.90;101003.72;5070403;28;20147;-64
2021/06/16 11:32:22;;;;;;;12.07;6.43;;;;;;;29.61;36.29;101007.25;5096476;28;20044;-63
2021/06/16 11:34:53;;;;;;;16.85;6.40;;;;;;;29.37;37.97;101002.34;5080177;28;20040;-64
2021/06/16 11:37:59;;;;;;;16.20;6.90;;;;;;;29.37;38.33;101002.34;5072075;28;20067;-66
2021/06/16 11:40:28;;;;;;;18.20;6.70;;;;;;;29.54;37.13;100991.13;5107130;28;20044;-64
2021/06/16 11:42:55;;;;;;;19.02;6.82;;;;;;;29.22;37.35;100988.72;5101741;28;20078;-65
2021/06/16 11:45:26;;;;;;;21.13;6.68;;;;;;;29.40;36.27;100981.88;5101347;28;20047;-64
2021/06/16 11:47:56;;;;;;;14.98;6.55;;;;;;;29.99;36.70;100994.06;5091885;28;20040;-64
2021/06/16 11:50:30;;;;;;;13.40;7.07;;;;;;;29.74;36.71;100982.09;5107692;28;20575;-64
2021/06/16 11:53:02;;;;;;;18.33;7.20;;;;;;;29.82;37.26;100978.81;5099020;28;20089;-64
2021/06/16 11:55:46;;;;;;;12.75;6.68;;;;;;;29.87;36.72;100977.97;5103044;28;20119;-65